Time;durP1;ratioP1;P1;durP2;ratioP2;P2;SDS_P1;SDS_P2;PMS_P1;PMS_P2;Temp;Humidity;BMP_temperature;BMP_pressure;BME280_temperature;BME280_humidity;BME280_pressure;Samples;Min_cycle;Max_cycle;Signal;HPM_P1;HPM_P2
2020/12/01 00:00:19;;;;;;;;;;;4.70;99.90;;;;;;4985010;28;19914;-87
2020/12/01 00:02:44;;;;;;;;;;;4.70;99.90;;;;;;4990583;28;19918;-91
2020/12/01 00:05:11;;;;;;;;;;;4.70;99.90;;;;;;4989205;28;20317;-80
2020/12/01 00:07:37;;;;;;;;;;;4.70;99.90;;;;;;4988796;28;19918;-86
2020/12/01 00:10:03;;;;;;;;;;;4.70;99.90;;;;;;4989830;28;19917;-85
2020/12/01 00:12:32;;;;;;;;;;;4.70;99.90;;;;;;4982316;28;19961;-89
2020/12/01 00:14:58;;;;;;;;;;;4.70;99.90;;;;;;4990075;28;19961;-83
2020/12/01 00:17:23;;;;;;;;;;;4.70;99.90;;;;;;4989647;28;19967;-85
2020/12/01 00:19:49;;;;;;;;;;;4.70;99.90;;;;;;4990493;28;20016;-86
2020/12/01 00:22:14;;;;;;;;;;;4.70;99.90;;;;;;4987499;28;19929;-91
2020/12/01 00:24:40;;;;;;;;;;;4.60;99.90;;;;;;4986851;28;20421;-87
2020/12/01 00:27:05;;;;;;;;;;;4.70;99.90;;;;;;4989344;28;19957;-82
2020/12/01 00:29:31;;;;;;;;;;;4.70;99.90;;;;;;4989251;28;19994;-85
2020/12/01 00:31:57;;;;;;;;;;;4.70;99.90;;;;;;4988558;28;19914;-86
2020/12/01 00:34:22;;;;;;;;;;;4.60;99.90;;;;;;4990433;28;20427;-83
2020/12/01 00:36:48;;;;;;;;;;;4.60;99.90;;;;;;4988946;28;19910;-83
2020/12/01 00:39:13;;;;;;;;;;;4.60;99.90;;;;;;4989476;28;19910;-89
2020/12/01 00:41:39;;;;;;;;;;;4.60;99.90;;;;;;4991004;28;19910;-86
2020/12/01 00:44:05;;;;;;;;;;;4.60;99.90;;;;;;4989503;28;19976;-82
2020/12/01 00:46:31;;;;;;;;;;;4.50;99.90;;;;;;4988507;28;19914;-85
2020/12/01 00:48:56;;;;;;;;;;;4.50;99.90;;;;;;4987611;28;19910;-89
2020/12/01 00:51:22;;;;;;;;;;;4.50;99.90;;;;;;4988993;28;19918;-87
2020/12/01 00:53:48;;;;;;;;;;;4.50;99.90;;;;;;4988482;28;20255;-88
2020/12/01 00:56:20;;;;;;;;;;;4.40;99.90;;;;;;4989537;28;19914;-89
2020/12/01 00:58:46;;;;;;;;;;;4.50;99.90;;;;;;4985245;28;19910;-89
2020/12/01 01:01:12;;;;;;;;;;;4.50;99.90;;;;;;4989951;28;19910;-88
2020/12/01 01:03:37;;;;;;;;;;;4.50;99.90;;;;;;4989507;28;19910;-87
2020/12/01 01:06:03;;;;;;;;;;;4.50;99.90;;;;;;4987290;28;20282;-84
2020/12/01 01:08:29;;;;;;;;;;;4.50;99.90;;;;;;4990391;28;19953;-86
2020/12/01 01:10:55;;;;;;;;;;;4.50;99.90;;;;;;4990821;28;20277;-79
2020/12/01 01:13:21;;;;;;;;;;;4.50;99.90;;;;;;4989502;28;19926;-88
2020/12/01 01:15:46;;;;;;;;;;;4.50;99.90;;;;;;4988826;28;19970;-83
2020/12/01 01:18:12;;;;;;;;;;;4.50;99.90;;;;;;4981547;28;19910;-85
2020/12/01 01:20:37;;;;;;;;;;;4.50;99.90;;;;;;4991581;28;19964;-83
2020/12/01 01:23:03;;;;;;;;;;;4.50;99.90;;;;;;4982166;28;20063;-88
2020/12/01 01:25:29;;;;;;;;;;;4.50;99.90;;;;;;4991616;28;20324;-86
2020/12/01 01:27:54;;;;;;;;;;;4.50;99.90;;;;;;4991622;28;20035;-84
2020/12/01 01:30:22;;;;;;;;;;;4.50;99.90;;;;;;4991800;28;19917;-84
2020/12/01 01:32:47;;;;;;;;;;;4.50;99.90;;;;;;4991323;28;19964;-77
2020/12/01 01:35:14;;;;;;;;;;;4.50;99.90;;;;;;4993700;28;19922;-90
2020/12/01 01:37:39;;;;;;;;;;;4.50;99.90;;;;;;4992425;28;20407;-86
2020/12/01 01:40:05;;;;;;;;;;;4.50;99.90;;;;;;4992257;28;20009;-86
2020/12/01 01:42:31;;;;;;;;;;;4.50;99.90;;;;;;4992139;28;19910;-87
2020/12/01 01:44:56;;;;;;;;;;;4.50;99.90;;;;;;4990248;28;19921;-83
2020/12/01 01:47:29;;;;;;;;;;;4.40;99.90;;;;;;4986549;28;19939;-84
2020/12/01 01:49:58;;;;;;;;;;;4.40;99.90;;;;;;4989168;28;19942;-85
2020/12/01 01:52:27;;;;;;;;;;;4.50;99.90;;;;;;4983739;28;19930;-84
2020/12/01 01:54:53;;;;;;;;;;;4.50;99.90;;;;;;4991052;28;19939;-86
2020/12/01 01:57:19;;;;;;;;;;;4.40;99.90;;;;;;4987413;28;20406;-84
2020/12/01 01:59:46;;;;;;;;;;;4.50;99.90;;;;;;4985731;28;19968;-87
2020/12/01 02:02:12;;;;;;;;;;;4.40;99.90;;;;;;4987979;28;20446;-83
2020/12/01 02:04:38;;;;;;;;;;;4.40;99.90;;;;;;4988482;28;19914;-82
2020/12/01 02:07:04;;;;;;;;;;;4.40;99.90;;;;;;4988516;28;19980;-85
2020/12/01 02:09:30;;;;;;;;;;;4.40;99.90;;;;;;4988467;28;19914;-84
2020/12/01 02:11:56;;;;;;;;;;;4.40;99.90;;;;;;4985440;28;19921;-84
2020/12/01 02:14:22;;;;;;;;;;;4.40;99.90;;;;;;4988704;28;19922;-84
2020/12/01 02:16:52;;;;;;;;;;;4.40;99.90;;;;;;4989361;28;20008;-86
2020/12/01 02:19:19;;;;;;;;;;;4.40;99.90;;;;;;4983976;28;19997;-80
2020/12/01 02:21:45;;;;;;;;;;;4.40;99.90;;;;;;4989066;28;19924;-86
2020/12/01 02:24:13;;;;;;;;;;;4.40;99.90;;;;;;4990127;28;19921;-85
2020/12/01 02:26:38;;;;;;;;;;;4.40;99.90;;;;;;4984520;28;19959;-85
2020/12/01 02:29:10;;;;;;;;;;;4.40;99.90;;;;;;4988116;28;20370;-86
2020/12/01 02:31:36;;;;;;;;;;;4.40;99.90;;;;;;4989045;28;20358;-85
2020/12/01 02:34:04;;;;;;;;;;;4.30;99.90;;;;;;4990692;28;19922;-84
2020/12/01 02:36:30;;;;;;;;;;;4.30;99.90;;;;;;4990610;28;19918;-85
2020/12/01 02:38:55;;;;;;;;;;;4.30;99.90;;;;;;4991091;28;19979;-84
2020/12/01 02:41:21;;;;;;;;;;;4.20;99.90;;;;;;4990765;28;19956;-84
2020/12/01 02:43:46;;;;;;;;;;;4.20;99.90;;;;;;4991039;28;19957;-84
2020/12/01 02:46:12;;;;;;;;;;;4.30;99.90;;;;;;4990958;28;19936;-85
2020/12/01 02:48:38;;;;;;;;;;;4.20;99.90;;;;;;4991123;28;19910;-85
2020/12/01 02:51:04;;;;;;;;;;;4.20;99.90;;;;;;4991023;28;19914;-82
2020/12/01 02:53:29;;;;;;;;;;;4.20;99.90;;;;;;4990701;28;19978;-86
2020/12/01 02:55:55;;;;;;;;;;;4.20;99.90;;;;;;4989538;28;19917;-85
2020/12/01 02:58:20;;;;;;;;;;;4.20;99.90;;;;;;4990437;28;19914;-82
2020/12/01 03:00:47;;;;;;;;;;;4.20;99.90;;;;;;4986286;28;20471;-85
2020/12/01 03:03:12;;;;;;;;;;;4.20;99.90;;;;;;4978493;28;19993;-86
2020/12/01 03:05:38;;;;;;;;;;;4.10;99.90;;;;;;4990533;28;20055;-85
2020/12/01 03:08:03;;;;;;;;;;;4.20;99.90;;;;;;4990709;28;19925;-83
2020/12/01 03:10:29;;;;;;;;;;;4.20;99.90;;;;;;4990753;28;19913;-85
2020/12/01 03:12:54;;;;;;;;;;;4.20;99.90;;;;;;4990433;28;19925;-84
2020/12/01 03:15:20;;;;;;;;;;;4.20;99.90;;;;;;4989299;28;19932;-85
2020/12/01 03:17:46;;;;;;;;;;;4.20;99.90;;;;;;4990544;28;20042;-85
2020/12/01 03:20:12;;;;;;;;;;;4.10;99.90;;;;;;4990375;28;20004;-85
2020/12/01 03:22:37;;;;;;;;;;;4.10;99.90;;;;;;4989948;28;19917;-83
2020/12/01 03:25:03;;;;;;;;;;;4.10;99.90;;;;;;4990757;28;19914;-84
2020/12/01 03:27:29;;;;;;;;;;;4.10;99.90;;;;;;4989657;28;19909;-85
2020/12/01 03:29:54;;;;;;;;;;;4.10;99.90;;;;;;4990868;28;19910;-82
2020/12/01 03:32:23;;;;;;;;;;;4.10;99.90;;;;;;4989210;28;19914;-85
2020/12/01 03:34:48;;;;;;;;;;;4.10;99.90;;;;;;4989508;28;19929;-85
2020/12/01 03:37:14;;;;;;;;;;;4.10;99.90;;;;;;4990416;28;19914;-85
2020/12/01 03:39:40;;;;;;;;;;;4.00;99.90;;;;;;4990153;28;19922;-85
2020/12/01 03:42:05;;;;;;;;;;;4.00;99.90;;;;;;4982403;28;20476;-85
2020/12/01 03:44:31;;;;;;;;;;;4.00;99.90;;;;;;4988372;28;19917;-86
2020/12/01 03:46:57;;;;;;;;;;;4.00;99.90;;;;;;4990158;28;19917;-85
2020/12/01 03:49:23;;;;;;;;;;;4.00;99.90;;;;;;4981878;28;20293;-84
2020/12/01 03:51:48;;;;;;;;;;;4.00;99.90;;;;;;4983417;28;19964;-85
2020/12/01 03:54:14;;;;;;;;;;;4.00;99.90;;;;;;4989373;28;19922;-85
2020/12/01 03:56:40;;;;;;;;;;;4.00;99.90;;;;;;4990283;28;19965;-85
2020/12/01 03:59:05;;;;;;;;;;;4.00;99.90;;;;;;4989236;28;19921;-86
2020/12/01 04:01:31;;;;;;;;;;;3.90;99.90;;;;;;4989665;28;20380;-84
2020/12/01 04:03:56;;;;;;;;;;;3.90;99.90;;;;;;4989656;28;19921;-83
2020/12/01 04:06:22;;;;;;;;;;;3.90;99.90;;;;;;4977846;28;20267;-85
2020/12/01 04:08:47;;;;;;;;;;;3.90;99.90;;;;;;4988523;28;19968;-80
2020/12/01 04:11:13;;;;;;;;;;;3.90;99.90;;;;;;4990449;28;19910;-86
2020/12/01 04:13:39;;;;;;;;;;;3.90;99.90;;;;;;4989356;28;19961;-86
2020/12/01 04:16:04;;;;;;;;;;;3.90;99.90;;;;;;4983259;28;19910;-85
2020/12/01 04:18:30;;;;;;;;;;;3.90;99.90;;;;;;4977847;28;19917;-85
2020/12/01 04:20:55;;;;;;;;;;;3.90;99.90;;;;;;4989726;28;19917;-84
2020/12/01 04:23:21;;;;;;;;;;;3.90;99.90;;;;;;4989666;28;20330;-85
2020/12/01 04:25:46;;;;;;;;;;;3.90;99.90;;;;;;4989894;28;20470;-83
2020/12/01 04:28:12;;;;;;;;;;;3.90;99.90;;;;;;4989517;28;19914;-84
2020/12/01 04:30:38;;;;;;;;;;;3.80;99.90;;;;;;4987858;28;19913;-86
2020/12/01 04:33:03;;;;;;;;;;;3.80;99.90;;;;;;4988834;28;19922;-86
2020/12/01 04:35:29;;;;;;;;;;;3.80;99.90;;;;;;4984892;28;19914;-86
2020/12/01 04:37:58;;;;;;;;;;;3.80;99.90;;;;;;4982484;28;20009;-85
2020/12/01 04:40:26;;;;;;;;;;;3.80;99.90;;;;;;4979273;28;19914;-85
2020/12/01 04:42:53;;;;;;;;;;;3.80;99.90;;;;;;4988289;28;19914;-85
2020/12/01 04:45:20;;;;;;;;;;;3.80;99.90;;;;;;4989678;28;19914;-86
2020/12/01 04:47:48;;;;;;;;;;;3.80;99.90;;;;;;4989682;28;19941;-87
2020/12/01 04:50:15;;;;;;;;;;;3.80;99.90;;;;;;4987503;28;20321;-86
2020/12/01 04:52:44;;;;;;;;;;;3.80;99.90;;;;;;4989872;28;19922;-85
2020/12/01 04:55:28;;;;;;;;;;;3.80;99.90;;;;;;4991406;28;20060;-84
2020/12/01 04:58:23;;;;;;;;;;;3.80;99.90;;;;;;4994386;28;19921;-84
2020/12/01 05:00:53;;;;;;;;;;;3.80;99.90;;;;;;4994938;28;19914;-83
2020/12/01 05:03:23;;;;;;;;;;;3.80;99.90;;;;;;4988698;28;19997;-83
2020/12/01 05:08:58;;;;;;;;;;;3.70;99.90;;;;;;4941761;28;19917;-85
2020/12/01 05:11:23;;;;;;;;;;;3.70;99.90;;;;;;4992077;28;19964;-84
2020/12/01 05:13:53;;;;;;;;;;;3.70;99.90;;;;;;4992722;28;20393;-85
2020/12/01 05:16:42;;;;;;;;;;;3.70;99.90;;;;;;4992847;28;20394;-86
2020/12/01 05:19:26;;;;;;;;;;;3.70;99.90;;;;;;4972114;28;20254;-87
2020/12/01 05:21:52;;;;;;;;;;;3.70;99.90;;;;;;4991522;28;19910;-75
2020/12/01 05:24:17;;;;;;;;;;;3.70;99.90;;;;;;4992343;28;20004;-84
2020/12/01 05:26:43;;;;;;;;;;;3.60;99.90;;;;;;4992469;28;20389;-86
2020/12/01 05:29:21;;;;;;;;;;;3.60;99.90;;;;;;4992661;28;20278;-85
2020/12/01 05:31:47;;;;;;;;;;;3.60;99.90;;;;;;4992130;28;20397;-84
2020/12/01 05:34:17;;;;;;;;;;;3.70;99.90;;;;;;4992177;28;19991;-84
2020/12/01 05:36:43;;;;;;;;;;;3.60;99.90;;;;;;4991228;28;20242;-86
2020/12/01 05:39:11;;;;;;;;;;;3.60;99.90;;;;;;4992369;28;20619;-85
2020/12/01 05:41:37;;;;;;;;;;;3.60;99.90;;;;;;4992511;28;19964;-87
2020/12/01 05:44:15;;;;;;;;;;;3.60;99.90;;;;;;4992426;28;19914;-83
2020/12/01 05:46:40;;;;;;;;;;;3.60;99.90;;;;;;4990504;28;20005;-86
2020/12/01 05:49:24;;;;;;;;;;;3.60;99.90;;;;;;4992243;28;20008;-85
2020/12/01 05:51:57;;;;;;;;;;;3.70;99.90;;;;;;4991103;28;19918;-85
2020/12/01 05:54:31;;;;;;;;;;;3.60;99.90;;;;;;4988562;28;19922;-84
2020/12/01 05:56:56;;;;;;;;;;;3.70;99.90;;;;;;4988120;28;19914;-85
2020/12/01 05:59:23;;;;;;;;;;;3.70;99.90;;;;;;4989402;28;19909;-84
2020/12/01 06:02:04;;;;;;;;;;;3.70;99.90;;;;;;4990306;28;20001;-75
2020/12/01 06:04:30;;;;;;;;;;;3.70;99.90;;;;;;4990360;28;19918;-76
2020/12/01 06:07:16;;;;;;;;;;;3.60;99.90;;;;;;4988711;28;20271;-74
2020/12/01 06:09:47;;;;;;;;;;;3.70;99.90;;;;;;4990851;28;19910;-75
2020/12/01 06:12:24;;;;;;;;;;;3.70;99.90;;;;;;4990537;28;20121;-75
2020/12/01 06:15:00;;;;;;;;;;;3.70;99.90;;;;;;4990822;28;20060;-74
2020/12/01 06:17:28;;;;;;;;;;;3.70;99.90;;;;;;4989635;28;19921;-74
2020/12/01 06:20:14;;;;;;;;;;;3.60;99.90;;;;;;4990971;28;19987;-75
2020/12/01 06:22:50;;;;;;;;;;;3.70;99.90;;;;;;4960000;28;20270;-75
2020/12/01 06:25:34;;;;;;;;;;;3.70;99.90;;;;;;4986169;28;20064;-74
2020/12/01 06:28:17;;;;;;;;;;;3.60;99.90;;;;;;4989051;28;19967;-75
2020/12/01 06:31:02;;;;;;;;;;;3.70;99.90;;;;;;4988737;28;19918;-74
2020/12/01 06:33:39;;;;;;;;;;;3.70;99.90;;;;;;4987715;28;19922;-74
2020/12/01 06:36:14;;;;;;;;;;;3.70;99.90;;;;;;4986718;28;19914;-75
2020/12/01 06:38:42;;;;;;;;;;;3.60;99.90;;;;;;4988882;28;19963;-74
2020/12/01 06:41:11;;;;;;;;;;;3.70;99.90;;;;;;4987734;28;20016;-74
2020/12/01 06:43:39;;;;;;;;;;;3.70;99.90;;;;;;4987707;28;19959;-75
2020/12/01 06:46:19;;;;;;;;;;;3.70;99.90;;;;;;4988116;28;19975;-74
2020/12/01 06:48:47;;;;;;;;;;;3.70;99.90;;;;;;4986570;28;20005;-74
2020/12/01 06:51:13;;;;;;;;;;;3.80;99.90;;;;;;4989207;28;19914;-75
2020/12/01 06:53:40;;;;;;;;;;;3.80;99.90;;;;;;4985014;28;20301;-74
2020/12/01 06:56:06;;;;;;;;;;;3.80;99.90;;;;;;4988900;28;20268;-74
2020/12/01 06:58:32;;;;;;;;;;;3.80;99.90;;;;;;4989902;28;20005;-74
2020/12/01 07:01:16;;;;;;;;;;;3.90;99.90;;;;;;4985970;28;20362;-74
2020/12/01 07:03:42;;;;;;;;;;;3.90;99.90;;;;;;4987548;28;20568;-74
2020/12/01 07:06:09;;;;;;;;;;;3.90;99.90;;;;;;4988287;28;19914;-74
2020/12/01 07:08:34;;;;;;;;;;;3.90;99.90;;;;;;4989539;28;19922;-74
2020/12/01 07:11:03;;;;;;;;;;;4.00;99.90;;;;;;4988761;28;19920;-74
2020/12/01 07:13:33;;;;;;;;;;;4.00;99.90;;;;;;4989928;28;19961;-74
2020/12/01 07:16:07;;;;;;;;;;;4.00;99.90;;;;;;4989537;28;19918;-74
2020/12/01 07:18:32;;;;;;;;;;;4.00;99.90;;;;;;4987727;28;19914;-73
2020/12/01 07:21:04;;;;;;;;;;;4.10;99.90;;;;;;4989474;28;19954;-74
2020/12/01 07:23:29;;;;;;;;;;;4.10;99.90;;;;;;4988887;28;20054;-74
2020/12/01 07:25:55;;;;;;;;;;;4.10;99.90;;;;;;4987628;28;19971;-74
2020/12/01 07:28:24;;;;;;;;;;;4.20;99.90;;;;;;4989527;28;19917;-74
2020/12/01 07:30:52;;;;;;;;;;;4.30;99.90;;;;;;4987936;28;20012;-74
2020/12/01 07:33:23;;;;;;;;;;;4.30;99.90;;;;;;4984518;28;19983;-73
2020/12/01 07:35:54;;;;;;;;;;;4.40;99.90;;;;;;4989278;28;20434;-76
2020/12/01 07:38:22;;;;;;;;;;;4.40;99.90;;;;;;4988895;28;19949;-74
2020/12/01 07:40:49;;;;;;;;;;;4.50;99.90;;;;;;4987149;28;19925;-75
2020/12/01 07:43:15;;;;;;;;;;;4.50;99.90;;;;;;4986945;28;20374;-74
2020/12/01 07:45:41;;;;;;;;;;;4.60;99.90;;;;;;4983519;28;19913;-74
2020/12/01 07:48:10;;;;;;;;;;;4.70;99.90;;;;;;4988080;28;19918;-73
2020/12/01 07:50:36;;;;;;;;;;;4.80;99.90;;;;;;4988921;28;19918;-74
2020/12/01 07:53:04;;;;;;;;;;;4.80;99.90;;;;;;4987519;28;19921;-74
2020/12/01 07:55:33;;;;;;;;;;;4.90;99.90;;;;;;4987086;28;19925;-74
2020/12/01 07:58:00;;;;;;;;;;;5.00;99.90;;;;;;4986147;28;19914;-74
2020/12/01 08:00:26;;;;;;;;;;;5.00;99.90;;;;;;4983763;28;19917;-74
2020/12/01 08:03:04;;;;;;;;;;;5.00;99.90;;;;;;4988174;28;19925;-73
2020/12/01 08:05:29;;;;;;;;;;;5.10;99.90;;;;;;4988868;28;19913;-72
2020/12/01 08:07:56;;;;;;;;;;;5.20;99.90;;;;;;4987993;28;20425;-73
2020/12/01 08:10:23;;;;;;;;;;;5.30;99.90;;;;;;4992553;28;20011;-75
2020/12/01 08:12:51;;;;;;;;;;;5.40;99.90;;;;;;4987764;28;20337;-75
2020/12/01 08:15:21;;;;;;;;;;;5.40;99.90;;;;;;4986511;28;19914;-75
2020/12/01 08:17:47;;;;;;;;;;;5.40;99.90;;;;;;4986689;28;19963;-73
2020/12/01 08:20:17;;;;;;;;;;;5.50;99.90;;;;;;4986306;28;19914;-74
2020/12/01 08:22:47;;;;;;;;;;;5.60;99.90;;;;;;4986490;28;19922;-75
2020/12/01 08:25:14;;;;;;;;;;;5.60;99.90;;;;;;4985853;28;19921;-74
2020/12/01 08:27:43;;;;;;;;;;;5.70;99.90;;;;;;4985591;28;19918;-74
2020/12/01 08:30:16;;;;;;;;;;;5.70;99.90;;;;;;4988015;28;19918;-76
2020/12/01 08:32:42;;;;;;;;;;;5.80;99.90;;;;;;4990885;28;20022;-74
2020/12/01 08:35:13;;;;;;;;;;;5.80;99.90;;;;;;4991386;28;19914;-74
2020/12/01 08:37:39;;;;;;;;;;;5.90;99.90;;;;;;4987465;28;19921;-74
2020/12/01 08:40:04;;;;;;;;;;;6.00;99.90;;;;;;4991808;28;20301;-73
2020/12/01 08:42:44;;;;;;;;;;;6.10;99.90;;;;;;4991598;28;20286;-73
2020/12/01 08:45:21;;;;;;;;;;;6.10;99.90;;;;;;4986034;28;19914;-73
2020/12/01 08:47:47;;;;;;;;;;;6.20;99.90;;;;;;4989945;28;19921;-71
2020/12/01 08:50:22;;;;;;;;;;;6.30;99.90;;;;;;4990983;28;19910;-73
2020/12/01 08:52:47;;;;;;;;;;;6.30;99.90;;;;;;4991852;28;20020;-72
2020/12/01 08:55:17;;;;;;;;;;;6.50;99.90;;;;;;4991173;28;20006;-72
2020/12/01 08:57:43;;;;;;;;;;;6.60;99.90;;;;;;4988289;28;19918;-73
2020/12/01 09:00:11;;;;;;;;;;;6.60;99.90;;;;;;4991361;28;19910;-73
2020/12/01 09:02:38;;;;;;;;;;;6.60;99.90;;;;;;4988526;28;19913;-73
2020/12/01 09:05:04;;;;;;;;;;;6.70;99.90;;;;;;4990382;28;19974;-73
2020/12/01 09:07:36;;;;;;;;;;;6.80;99.90;;;;;;4990833;28;19914;-76
2020/12/01 09:10:24;;;;;;;;;;;6.90;99.90;;;;;;4990409;28;19925;-74
2020/12/01 09:13:20;;;;;;;;;;;6.90;99.90;;;;;;4988906;28;19921;-72
2020/12/01 09:16:06;;;;;;;;;;;7.00;99.90;;;;;;4988067;28;20354;-73
2020/12/01 09:24:17;;;;;;;;;;;7.20;99.90;;;;;;4990570;28;20395;-73
2020/12/01 09:26:43;;;;;;;;;;;7.30;99.90;;;;;;4990947;28;20389;-73
2020/12/01 09:29:08;;;;;;;;;;;7.40;99.90;;;;;;4989446;28;19910;-73
2020/12/01 09:31:36;;;;;;;;;;;7.50;99.90;;;;;;4990854;28;19914;-74
2020/12/01 09:34:01;;;;;;;;;;;7.50;99.90;;;;;;4990858;28;19922;-73
2020/12/01 09:36:27;;;;;;;;;;;7.60;99.90;;;;;;4990478;28;20016;-73
2020/12/01 09:38:54;;;;;;;;;;;7.70;99.90;;;;;;4989311;28;20302;-72
2020/12/01 09:41:21;;;;;;;;;;;7.70;99.90;;;;;;4988924;28;19914;-73
2020/12/01 09:43:56;;;;;;;;;;;7.70;99.90;;;;;;4990525;28;19918;-73
2020/12/01 09:46:37;;;;;;;;;;;7.70;99.90;;;;;;4990077;28;20347;-72
2020/12/01 09:49:03;;;;;;;;;;;7.70;99.90;;;;;;4985624;28;20299;-72
2020/12/01 09:51:29;;;;;;;;;;;7.70;99.90;;;;;;4989011;28;19921;-73
2020/12/01 10:05:03;;;;;;;;;;;8.10;99.90;;;;;;4989005;28;19920;-73
2020/12/01 10:26:28;;;;;;;;;;;8.60;99.90;;;;;;4981220;28;19921;-73
2020/12/01 10:36:34;;;;;;;;;;;8.80;99.90;;;;;;4986283;28;19924;-75
2020/12/01 10:39:01;;;;;;;;;;;8.90;99.90;;;;;;4989177;28;19917;-73
2020/12/01 10:41:28;;;;;;;;;;;8.90;99.90;;;;;;4989850;28;19910;-73
2020/12/01 10:43:54;;;;;;;;;;;8.80;99.90;;;;;;4989431;28;19973;-74
2020/12/01 10:46:19;;;;;;;;;;;8.90;99.90;;;;;;4988347;28;19983;-77
2020/12/01 10:48:45;;;;;;;;;;;9.00;99.90;;;;;;4989545;28;20362;-74
2020/12/01 10:51:10;;;;;;;;;;;9.00;99.90;;;;;;4984533;28;20359;-75
2020/12/01 10:53:36;;;;;;;;;;;9.20;99.90;;;;;;4988022;28;19945;-77
2020/12/01 10:56:02;;;;;;;;;;;9.20;99.90;;;;;;4988267;28;19914;-73
2020/12/01 10:58:28;;;;;;;;;;;9.30;99.90;;;;;;4989626;28;19917;-76
2020/12/01 11:00:55;;;;;;;;;;;9.40;99.90;;;;;;4984998;28;19918;-78
2020/12/01 11:03:20;;;;;;;;;;;9.50;99.90;;;;;;4984730;28;19921;-74
2020/12/01 11:05:46;;;;;;;;;;;9.60;99.90;;;;;;4989706;28;20012;-76
2020/12/01 11:08:13;;;;;;;;;;;9.70;99.80;;;;;;4989108;28;19913;-73
2020/12/01 11:10:39;;;;;;;;;;;9.90;99.50;;;;;;4988727;28;19953;-72
2020/12/01 11:13:04;;;;;;;;;;;10.00;99.40;;;;;;4984939;28;19929;-76
2020/12/01 11:15:30;;;;;;;;;;;10.10;99.10;;;;;;4986889;28;20427;-79
2020/12/01 11:17:55;;;;;;;;;;;10.00;98.80;;;;;;4987447;28;19918;-78
2020/12/01 11:20:21;;;;;;;;;;;10.00;99.40;;;;;;4987547;28;19913;-74
2020/12/01 11:22:47;;;;;;;;;;;10.20;98.80;;;;;;4988412;28;20386;-75
2020/12/01 11:25:13;;;;;;;;;;;10.40;98.80;;;;;;4985922;28;20338;-76
2020/12/01 11:27:39;;;;;;;;;;;10.60;98.40;;;;;;4987995;28;19959;-80
2020/12/01 11:30:05;;;;;;;;;;;10.70;98.30;;;;;;4988638;28;20286;-79
2020/12/01 11:32:30;;;;;;;;;;;11.10;98.00;;;;;;4984770;28;19944;-76
2020/12/01 11:34:56;;;;;;;;;;;11.40;97.20;;;;;;4985052;28;19914;-78
2020/12/01 11:37:21;;;;;;;;;;;11.90;96.60;;;;;;4984745;28;19914;-79
2020/12/01 11:39:47;;;;;;;;;;;12.30;95.80;;;;;;4985392;28;19918;-79
2020/12/01 11:42:13;;;;;;;;;;;12.60;95.50;;;;;;4984626;28;19918;-79
2020/12/01 11:44:38;;;;;;;;;;;12.90;94.80;;;;;;4988801;28;20020;-79
2020/12/01 11:47:04;;;;;;;;;;;13.10;93.90;;;;;;4983747;28;20302;-77
2020/12/01 11:49:29;;;;;;;;;;;13.50;93.60;;;;;;4987611;28;20024;-79
2020/12/01 11:51:55;;;;;;;;;;;13.90;93.30;;;;;;4987325;28;19929;-77
2020/12/01 11:54:21;;;;;;;;;;;14.00;92.60;;;;;;4983749;28;20318;-79
2020/12/01 11:56:46;;;;;;;;;;;14.20;92.20;;;;;;4986407;28;19922;-78
2020/12/01 11:59:12;;;;;;;;;;;14.40;91.60;;;;;;4987421;28;19918;-80
2020/12/01 12:01:37;;;;;;;;;;;14.10;90.60;;;;;;4985803;28;20016;-81
2020/12/01 12:04:04;;;;;;;;;;;14.10;90.70;;;;;;4982920;28;20389;-81
2020/12/01 12:06:30;;;;;;;;;;;14.30;90.60;;;;;;4984822;28;19914;-78
2020/12/01 12:08:55;;;;;;;;;;;14.40;89.80;;;;;;4985398;28;19928;-81
2020/12/01 12:11:21;;;;;;;;;;;14.40;89.10;;;;;;4987329;28;19969;-78
2020/12/01 12:13:47;;;;;;;;;;;14.70;89.60;;;;;;4988289;28;20401;-78
2020/12/01 12:16:17;;;;;;;;;;;14.90;88.80;;;;;;4982792;28;19914;-77
2020/12/01 12:18:43;;;;;;;;;;;15.10;86.90;;;;;;4986855;28;20305;-80
2020/12/01 12:21:08;;;;;;;;;;;15.10;86.90;;;;;;4982614;28;20386;-80
2020/12/01 12:23:34;;;;;;;;;;;15.10;85.70;;;;;;4983466;28;20005;-78
2020/12/01 12:26:01;;;;;;;;;;;14.80;85.40;;;;;;4986060;28;21258;-79
2020/12/01 12:28:26;;;;;;;;;;;14.60;86.00;;;;;;4987501;28;19914;-79
2020/12/01 12:30:52;;;;;;;;;;;14.90;86.80;;;;;;4982270;28;19914;-80
2020/12/01 12:33:19;;;;;;;;;;;15.10;85.40;;;;;;4987671;28;19914;-79
2020/12/01 12:35:44;;;;;;;;;;;15.30;85.20;;;;;;4983629;28;19924;-80
2020/12/01 12:38:10;;;;;;;;;;;15.20;85.10;;;;;;4985875;28;20232;-84
2020/12/01 12:40:35;;;;;;;;;;;15.10;84.80;;;;;;4987239;28;19940;-82
2020/12/01 12:43:01;;;;;;;;;;;15.10;84.70;;;;;;4986225;28;19910;-83
2020/12/01 12:45:26;;;;;;;;;;;14.60;83.40;;;;;;4984549;28;19919;-81
2020/12/01 12:47:52;;;;;;;;;;;14.20;85.30;;;;;;4987999;28;19968;-80
2020/12/01 12:50:18;;;;;;;;;;;14.30;86.60;;;;;;4988766;28;19909;-82
2020/12/01 12:52:43;;;;;;;;;;;14.00;86.70;;;;;;4987453;28;20393;-81
2020/12/01 12:55:09;;;;;;;;;;;13.50;87.00;;;;;;4987347;28;19962;-82
2020/12/01 12:57:34;;;;;;;;;;;13.30;86.90;;;;;;4988061;28;20259;-79
2020/12/01 13:00:00;;;;;;;;;;;13.10;88.10;;;;;;4988625;28;20373;-81
2020/12/01 13:02:26;;;;;;;;;;;13.50;88.20;;;;;;4987827;28;19914;-82
2020/12/01 13:04:51;;;;;;;;;;;13.40;87.90;;;;;;4988348;28;19913;-79
2020/12/01 13:07:17;;;;;;;;;;;13.40;87.70;;;;;;4984461;28;20385;-80
2020/12/01 13:09:42;;;;;;;;;;;13.20;88.10;;;;;;4988646;28;19957;-80
2020/12/01 13:12:08;;;;;;;;;;;12.80;88.90;;;;;;4988243;28;19909;-83
2020/12/01 13:14:33;;;;;;;;;;;12.90;89.00;;;;;;4988215;28;19922;-83
2020/12/01 13:16:59;;;;;;;;;;;12.90;89.30;;;;;;4989892;28;19917;-79
2020/12/01 13:19:25;;;;;;;;;;;13.00;89.10;;;;;;4990564;28;19952;-80
2020/12/01 13:21:50;;;;;;;;;;;12.70;89.60;;;;;;4991746;28;20030;-77
2020/12/01 13:24:16;;;;;;;;;;;12.70;89.20;;;;;;4991564;28;20410;-78
2020/12/01 13:26:41;;;;;;;;;;;12.60;89.50;;;;;;4991265;28;19914;-78
2020/12/01 13:29:07;;;;;;;;;;;12.30;89.80;;;;;;4988485;28;19922;-80
2020/12/01 13:31:33;;;;;;;;;;;12.10;90.50;;;;;;4986581;28;19937;-79
2020/12/01 13:33:58;;;;;;;;;;;12.10;90.40;;;;;;4989442;28;19957;-80
2020/12/01 13:36:25;;;;;;;;;;;11.90;90.70;;;;;;4990950;28;20450;-80
2020/12/01 13:38:50;;;;;;;;;;;11.80;90.70;;;;;;4991049;28;19910;-76
2020/12/01 13:41:16;;;;;;;;;;;11.30;91.20;;;;;;4989148;28;19914;-80
2020/12/01 13:43:42;;;;;;;;;;;10.50;92.00;;;;;;4985889;28;19955;-80
2020/12/01 13:46:08;;;;;;;;;;;10.20;92.80;;;;;;4990851;28;19921;-81
2020/12/01 13:48:33;;;;;;;;;;;10.00;93.10;;;;;;4989473;28;19914;-82
2020/12/01 13:50:59;;;;;;;;;;;9.90;93.50;;;;;;4991287;28;20001;-77
2020/12/01 13:53:25;;;;;;;;;;;9.40;94.10;;;;;;4991154;28;19925;-79
2020/12/01 13:55:51;;;;;;;;;;;9.20;94.60;;;;;;4990337;28;19918;-81
2020/12/01 13:58:16;;;;;;;;;;;9.10;94.90;;;;;;4990513;28;20404;-79
2020/12/01 14:00:42;;;;;;;;;;;8.90;95.00;;;;;;4990914;28;20366;-79
2020/12/01 14:03:07;;;;;;;;;;;8.70;95.60;;;;;;4990523;28;20243;-81
2020/12/01 14:05:33;;;;;;;;;;;8.60;95.90;;;;;;4990742;28;19965;-81
2020/12/01 14:08:01;;;;;;;;;;;8.40;96.10;;;;;;4985146;28;20297;-81
2020/12/01 14:10:26;;;;;;;;;;;8.30;96.40;;;;;;4985328;28;19967;-79
2020/12/01 14:12:52;;;;;;;;;;;8.20;96.70;;;;;;4992273;28;20332;-82
2020/12/01 14:15:18;;;;;;;;;;;8.10;97.10;;;;;;4990813;28;19972;-79
2020/12/01 14:17:44;;;;;;;;;;;8.10;97.30;;;;;;4986558;28;19910;-79
2020/12/01 14:20:11;;;;;;;;;;;8.00;97.50;;;;;;4988883;28;19910;-82
2020/12/01 14:22:37;;;;;;;;;;;8.00;97.50;;;;;;4989662;28;19917;-82
2020/12/01 14:25:03;;;;;;;;;;;7.80;97.80;;;;;;4990458;28;19916;-81
2020/12/01 14:27:29;;;;;;;;;;;7.80;98.10;;;;;;4989628;28;19960;-83
2020/12/01 14:29:54;;;;;;;;;;;7.70;98.20;;;;;;4990659;28;19957;-82
2020/12/01 14:32:20;;;;;;;;;;;7.70;98.40;;;;;;4988164;28;19910;-80
2020/12/01 14:34:46;;;;;;;;;;;7.60;98.40;;;;;;4989055;28;19922;-80
2020/12/01 14:37:14;;;;;;;;;;;7.50;98.80;;;;;;4988573;28;19929;-77
2020/12/01 14:39:42;;;;;;;;;;;7.40;99.00;;;;;;4989808;28;20426;-79
2020/12/01 14:42:10;;;;;;;;;;;7.30;99.20;;;;;;4982989;28;19918;-79
2020/12/01 14:44:35;;;;;;;;;;;7.30;99.30;;;;;;4989418;28;19910;-80
2020/12/01 14:47:04;;;;;;;;;;;7.30;99.50;;;;;;4987689;28;19913;-77
2020/12/01 14:49:32;;;;;;;;;;;7.10;99.60;;;;;;4989189;28;19914;-81
2020/12/01 14:52:04;;;;;;;;;;;7.10;99.90;;;;;;4984770;28;20443;-79
2020/12/01 14:54:29;;;;;;;;;;;7.00;99.90;;;;;;4989645;28;19944;-79
2020/12/01 14:56:55;;;;;;;;;;;6.90;99.90;;;;;;4988726;28;19914;-73
2020/12/01 14:59:36;;;;;;;;;;;6.80;99.90;;;;;;4982385;28;19937;-78
2020/12/01 15:02:04;;;;;;;;;;;6.70;99.90;;;;;;4990194;28;20302;-74
2020/12/01 15:04:40;;;;;;;;;;;6.70;99.90;;;;;;4989921;28;19913;-74
2020/12/01 15:07:06;;;;;;;;;;;6.60;99.90;;;;;;4990600;28;19910;-76
2020/12/01 15:09:37;;;;;;;;;;;6.50;99.90;;;;;;4988972;28;19959;-78
2020/12/01 15:12:21;;;;;;;;;;;6.40;99.90;;;;;;4989639;28;19910;-78
2020/12/01 15:14:47;;;;;;;;;;;6.20;99.90;;;;;;4989712;28;19917;-78
2020/12/01 15:17:27;;;;;;;;;;;6.10;99.90;;;;;;4988070;28;20281;-78